Aeroporto :
LOGIN :

Iscrizione | Disclaimer

   EN    FR    IT 

 










Sommario :    VFR   VFR Marginale   IFR   IFR Intensivo   IFR Molto Intensivo
Visibilità : 
Base nubi : 
>= 8 km
>= 3000ft
5 / 8 km
1000 / 3000 ft
1500m / 5 km
500 / 1000 ft
800 / 1500m
200 / 500 ft
< 800m
< 200 ft
Simboli :   Temporali  Nebbia  Neve Forte  Precipitazioni Forti  Vento > 20 kt
SIGMETs :   Varie  Temporali  Ghiacco  Turbolenza  Onda orograficha  Ceneri Vulcaniche






- Altitudine del aeroporto : 124 ft
- Codice IATA : RNS


LFRN - Rennes

ULTIMO METAR :
  • 212130Z AUTO 17002KT 9000 1400 R28/P2000 R10/1700U FEW004 08/07 Q1023 TEMPO 0500 FG

METARs OBSOLETI :
  • 212100Z AUTO VRB02KT 1900 0800 R28/P2000 R10/1100U BCFG NSC 08/08 Q1022 TEMPO 0500 FG
  • 212030Z AUTO VRB01KT 4600 0500 R28/P2000 R10/0650D BCFG NSC 09/08 Q1022 NOSIG
  • 212000Z AUTO VRB02KT 9999 3900 NSC 10/09 Q1022 BECMG 3000 BR
  • 211930Z AUTO 34002KT CAVOK 10/09 Q1022 BECMG 3000 BR

TAF AMD TAF LFRN
Valido dal 21 a 20 ore il 22 a 18 ore UTC


212044Z 2120/2218 VRB04KT 3000 BR NSC
TEMPO 2120/2124 0500 FG
BECMG 2200/2202 0500 FG
TEMPO 2202/2209 0300 FG VV///
BECMG 2211/2213 CAVOK
ATIS : +33 2 99 67 72 50



MetMap, La meteo Aeronautica in un colpo d'occhio ! - Copyright ORBIFLY Dicembre 2007 - Disclaimer

ORBIFLY MET'MAP TEAM :

Programmazione e sviluppo : Alexandra Zaïnal
Concezione e sviluppo : Baudouin d'Aumeries
Co-Programmazione e sviluppo : Marc-Olivier Méhu
Supporto tecnico e logistico : Manuel Goepfert
Aiuto per la traduzione : Arnaldo La Scala

Contatto : metmap@orbifly.com




FONTI E CREDITI :

   NOAA